Stations météo

réclame
Mon MeteoGroup
Cairngorm, Grande-Bretagne (3065): Température de l'air & dewpoint: 11.02.2019 14:00:00 - 17.02.2019 14:00:00 (GMT)Cairngorm, Grande-Bretagne (3065): Vitesse du vent & gusts: 11.02.2019 14:00:00 - 17.02.2019 14:00:00 (GMT)Cairngorm, Grande-Bretagne (3065): Direction du vent: 11.02.2019 14:00:00 - 17.02.2019 14:00:00 (GMT)
Date & Time tt [°C] td [°C] ff [km/h] ff [knt] fx [km/h] fx [knt] dd
17.02.2019 14:00:00 2,4 2,4 94 51 130 70 S
17.02.2019 13:00:00 2,8 2,8 113 61 150 81 S
17.02.2019 12:00:00 3,1 3,1 122 66 167 90 S
17.02.2019 11:00:00 3,1 3,1 131 71 150 81 S
17.02.2019 10:00:00 2,9 2,9 80 43 120 65 S
17.02.2019 09:00:00 3,1 3,1 96 52 128 69 S
17.02.2019 08:00:00 3,1 3,1 104 56 139 75 S
17.02.2019 07:00:00 3,3 3,3 107 58 148 80 S
17.02.2019 06:00:00 3,5 3,5 102 55 143 77 S
17.02.2019 05:00:00 3,6 3,6 106 57 139 75 S
17.02.2019 04:00:00 3,9 3,9 100 54 126 68 S
17.02.2019 03:00:00 4,1 4,1 74 40 100 54 S
17.02.2019 02:00:00 3,7 3,7 78 42 107 58 S
17.02.2019 01:00:00 3,0 3,0 70 38 113 61 S
17.02.2019 00:00:00 2,3 2,3 83 45 119 64 S
16.02.2019 23:00:00 2,5 2,5 98 53 128 69 SSW
16.02.2019 22:00:00 1,9 1,9 93 50 113 61 SSW
16.02.2019 21:00:00 3,6 3,6 72 39 106 57 S
16.02.2019 20:00:00 3,0 3,0 72 39 85 46 S
16.02.2019 19:00:00 0,7 0,7 72 39 94 51 S
16.02.2019 18:00:00 -0,1 -0,1 78 42 100 54 S
16.02.2019 17:00:00 -0,9 -0,9 54 29 76 41 S
16.02.2019 16:00:00 -0,4 -0,4 42 23 61 33 S
16.02.2019 15:00:00 2,0 2,0 46 25 93 50 S
16.02.2019 14:00:00 0,4 0,4 63 34 91 49 SW
16.02.2019 13:00:00 0,9 0,9 42 23 80 43 SW
16.02.2019 12:00:00 1,7 1,7 50 27 74 40 SW
16.02.2019 11:00:00 2,2 2,2 44 24 67 36 SW
16.02.2019 10:00:00 2,4 2,4 35 19 72 39 SW
16.02.2019 09:00:00 2,4 2,4 35 19 57 31 SW
16.02.2019 08:00:00 2,7 2,7 46 25 72 39 SW
16.02.2019 07:00:00 2,7 2,7 63 34 83 45 SW
16.02.2019 06:00:00 2,9 2,9 70 38 87 47 SW
16.02.2019 05:00:00 2,7 2,7 72 39 98 53 WSW
16.02.2019 04:00:00 3,3 3,3 72 39 100 54 WSW
16.02.2019 03:00:00 3,2 3,2 65 35 100 54 WSW
16.02.2019 02:00:00 2,3 2,3 54 29 111 60 W
16.02.2019 01:00:00 4,3 4,3 72 39 104 56 SW
16.02.2019 00:00:00 5,1 5,1 74 40 117 63 SSW
15.02.2019 23:00:00 4,6 4,6 83 45 122 66 SSW
15.02.2019 22:00:00 4,9 4,9 63 34 98 53 S
15.02.2019 21:00:00 5,2 5,2 70 38 93 50 SSW
15.02.2019 20:00:00 6,8 6,8 78 42 115 62 SSW
15.02.2019 19:00:00 10,6 7,1 94 51 122 66 SW
15.02.2019 18:00:00 4,8 4,1 94 51 130 70 SW
15.02.2019 17:00:00 4,5 3,0 100 54 122 66 SSW
15.02.2019 16:00:00 6,0 1,5 98 53 124 67 SSW
15.02.2019 15:00:00 8,1 -1,3 89 48 128 69 SW
15.02.2019 14:00:00 9,4 -3,3 96 52 128 69 SW
15.02.2019 13:00:00 7,7 -1,4 89 48 119 64 SSW
15.02.2019 12:00:00 6,1 -0,8 76 41 119 64 SSW
15.02.2019 11:00:00 7,8 -3,2 85 46 117 63 SW
15.02.2019 10:00:00 8,6 -9,0 83 45 117 63 SW
15.02.2019 09:00:00 7,6 -16,2 80 43 111 60 SSW
15.02.2019 08:00:00 6,7 -15,5 87 47 122 66 SSW
15.02.2019 07:00:00 8,1 -17,3 83 45 117 63 SW
15.02.2019 06:00:00 6,7 -14,8 78 42 111 60 SW
15.02.2019 05:00:00 7,5 -10,9 67 36 104 56 SSW
15.02.2019 04:00:00 8,7 -6,7 83 45 100 54 SSW
15.02.2019 03:00:00 8,8 -6,5 74 40 93 50 SSW
15.02.2019 02:00:00 8,8 -5,7 72 39 93 50 SSW
15.02.2019 01:00:00 10,3 -5,6 67 36 85 46 SSW
15.02.2019 00:00:00 10,0 -5,6 59 32 91 49 SSW
14.02.2019 23:00:00 10,5 -8,1 74 40 96 52 SSW
14.02.2019 22:00:00 10,5 -6,9 74 40 93 50 SSW
14.02.2019 21:00:00 11,7 -4,8 67 36 93 50 SW
14.02.2019 20:00:00 12,5 -5,2 70 38 87 47 SW
14.02.2019 19:00:00 12,8 -4,5 65 35 80 43 SW
14.02.2019 18:00:00 12,5 -2,3 61 33 80 43 SW
14.02.2019 17:00:00 12,6 -2,1 68 37 85 46 SW
14.02.2019 16:00:00 11,2 11,0 70 38 87 47 SW
14.02.2019 15:00:00 7,2 7,1 72 39 87 47 SW
14.02.2019 14:00:00 5,3 5,3 68 37 78 42 SSW
14.02.2019 13:00:00 5,6 5,6 59 32 80 43 SSW
14.02.2019 12:00:00 4,6 4,6 67 36 80 43 SSW
14.02.2019 11:00:00 5,6 5,6 57 31 87 47 SW
14.02.2019 10:00:00 5,6 5,6 70 38 89 48 WSW
14.02.2019 09:00:00 4,7 4,6 72 39 96 52 WSW
14.02.2019 08:00:00 4,1 4,1 59 32 80 43 WSW
14.02.2019 07:00:00 4,1 4,1 57 31 102 55 SW
14.02.2019 06:00:00 3,9 3,9 67 36 111 60 SW
14.02.2019 05:00:00 3,5 3,5 67 36 94 51 SW
14.02.2019 04:00:00 3,4 3,4 55 30 85 46 SW
14.02.2019 03:00:00 3,2 3,2 59 32 100 54 SW
14.02.2019 02:00:00 3,4 3,4 72 39 94 51 SSW
14.02.2019 01:00:00 3,3 3,3 61 33 102 55 SSW
14.02.2019 00:00:00 2,8 2,8 59 32 96 52 SSW
13.02.2019 23:00:00 2,8 2,8 61 33 106 57 SSW
13.02.2019 22:00:00 2,8 2,7 85 46 113 61 SSW
13.02.2019 21:00:00 3,0 3,0 93 50 119 64 SSW
13.02.2019 20:00:00 3,2 3,2 81 44 98 53 SSW
13.02.2019 19:00:00 3,1 3,1 76 41 93 50 SSW
13.02.2019 18:00:00 3,3 3,3 74 40 94 51 S
13.02.2019 17:00:00 3,6 3,6 78 42 113 61 SSW
13.02.2019 16:00:00 3,6 3,6 91 49 120 65 SSW
13.02.2019 15:00:00 3,9 3,9 87 47 113 61 SSW
13.02.2019 14:00:00 4,0 4,0 72 39 96 52 SSW
13.02.2019 13:00:00 4,0 4,0 50 27 93 50 SSW
13.02.2019 12:00:00 3,8 3,8 52 28 109 59 SW
13.02.2019 11:00:00 3,9 3,9 72 39 96 52 SW
13.02.2019 10:00:00 4,0 4,0 72 39 91 49 SW
13.02.2019 09:00:00 3,7 3,7 52 28 83 45 WSW
13.02.2019 08:00:00 3,5 3,5 57 31 93 50 SSW
13.02.2019 07:00:00 3,8 3,7 61 33 100 54 SSW
13.02.2019 06:00:00 3,9 3,9 68 37 94 51 SW
13.02.2019 05:00:00 4,1 4,1 74 40 93 50 SSW
13.02.2019 04:00:00 4,1 4,1 80 43 104 56 SSW
13.02.2019 03:00:00 2,6 -1,3 74 40 87 47 SSW
13.02.2019 02:00:00 3,8 -3,7 57 31 81 44 SW
13.02.2019 01:00:00 1,4 -2,4 48 26 72 39 SSW
13.02.2019 00:00:00 8,3 -12,0 50 27 80 43 W
12.02.2019 23:00:00 7,2 -8,0 63 34 96 52 W
12.02.2019 22:00:00 6,1 1,8 70 38 120 65 W
12.02.2019 21:00:00 3,7 1,8 93 50 131 71 W
12.02.2019 20:00:00 2,6 1,7 100 54 150 81 W
12.02.2019 19:00:00 2,3 2,3 117 63 150 81 W
12.02.2019 18:00:00 1,9 1,9 104 56 139 75 W
12.02.2019 17:00:00 3,1 3,1 87 47 141 76 W
12.02.2019 16:00:00 3,0 3,0 94 51 144 78 WSW
12.02.2019 15:00:00 3,4 3,3 107 58 137 74 WSW
12.02.2019 14:00:00 4,4 4,3 89 48 130 70 WSW
12.02.2019 13:00:00 4,2 4,2 104 56 137 74 WSW
12.02.2019 12:00:00 4,8 4,7 109 59 159 86 WSW
12.02.2019 11:00:00 3,8 3,8 106 57 139 75 WSW
12.02.2019 10:00:00 2,8 2,8 106 57 135 73 WSW
12.02.2019 09:00:00 2,1 2,1 91 49 122 66 WSW
12.02.2019 08:00:00 1,7 1,7 54 29 78 42 SW
12.02.2019 07:00:00 1,8 1,8 39 21 54 29 WSW
12.02.2019 06:00:00 1,6 1,6 31 17 63 34 WSW
12.02.2019 05:00:00 1,0 1,0 28 15 83 45 SW
12.02.2019 04:00:00 -0,3 -0,3 52 28 78 42 SW
12.02.2019 03:00:00 -0,2 -0,2 44 24 74 40 SW
12.02.2019 02:00:00 0,8 0,8 34 18 46 25 SW
12.02.2019 01:00:00 0,8 0,8 29 16 - - SW
12.02.2019 00:00:00 0,8 0,8 24 13 - - SW
11.02.2019 23:00:00 0,6 0,6 21 11 - - SW
11.02.2019 22:00:00 0,7 0,7 21 11 - - WSW
11.02.2019 21:00:00 0,3 0,3 13 7 - - WSW
11.02.2019 20:00:00 -1,0 -1,0 11 6 - - WSW
11.02.2019 19:00:00 -4,3 -4,4 15 8 - - W
11.02.2019 18:00:00 -5,4 -5,7 8 4 - - WSW
11.02.2019 17:00:00 -6,1 -6,5 8 4 - - W
11.02.2019 16:00:00 -5,0 -5,4 4 2 - - W
11.02.2019 15:00:00 -4,9 -5,2 5 3 - - W
11.02.2019 14:00:00 -5,0 -5,3 5 3 - - S

tt = Température de l'air
td = dewpoint
ff = Vitesse du vent
fx = gusts
dd = Direction du vent

stations d'obs. à proximité